Swanbourne, Australia
Current Conditions -  °F | °C
As of 8:00 PM on Sunday 25 Jan 2015 (Local Time) from YPJT Reporting Station
Clear Clear  
Wind Chill: 79°   Ceiling: Unl
Heat Index: 79°   Visibility: 6mi
Dew Point: 39°   Wind: 8mph
Humidity: 24%   Direction: 130°SE
Pressure: 29.88"   Gusts: NA
Location:  31.98°S, 115.77°E
Report Text: YPJT 251200Z AUTO 13007KT 9999 // NCD 26/04 Q1012
Loading
Personal Weather Stations






























Interactive Weather Map New forecast layout! Learn more

10-Day Weather Forecast

Advertisements
Track Severe Weather on mobile